Time;durP1;ratioP1;P1;durP2;ratioP2;P2;SDS_P1;SDS_P2;PMS_P1;PMS_P2;Temp;Humidity;BMP_temperature;BMP_pressure;BME280_temperature;BME280_humidity;BME280_pressure;Samples;Min_cycle;Max_cycle;Signal;HPM_P1;HPM_P2
2021/10/15 00:01:34;;;;;;;5.22;1.90;;;9.50;99.90;;;;;;5012171;28;20044;-66
2021/10/15 00:03:59;;;;;;;4.25;1.42;;;9.50;99.90;;;;;;5012502;28;20022;-66
2021/10/15 00:06:26;;;;;;;7.00;1.85;;;9.50;99.90;;;;;;5012380;28;20561;-66
2021/10/15 00:08:51;;;;;;;6.10;1.80;;;9.60;99.90;;;;;;5012339;28;20030;-66
2021/10/15 00:11:17;;;;;;;9.30;1.88;;;9.60;99.90;;;;;;5012069;28;20452;-66
2021/10/15 00:13:43;;;;;;;4.90;1.45;;;9.60;99.90;;;;;;5012366;28;20033;-66
2021/10/15 00:16:09;;;;;;;4.00;1.60;;;9.60;99.90;;;;;;5012413;28;20030;-66
2021/10/15 00:18:35;;;;;;;2.92;1.60;;;9.60;99.90;;;;;;5012260;28;20030;-66
2021/10/15 00:21:00;;;;;;;5.05;1.80;;;9.60;99.90;;;;;;5012063;28;20032;-66
2021/10/15 00:23:26;;;;;;;5.25;1.88;;;9.60;99.90;;;;;;5012148;28;20097;-66
2021/10/15 00:25:52;;;;;;;7.15;2.20;;;9.60;99.90;;;;;;5012092;28;20029;-66
2021/10/15 00:28:17;;;;;;;5.38;1.88;;;9.60;99.90;;;;;;5012064;28;20030;-67
2021/10/15 00:30:43;;;;;;;6.38;1.80;;;9.60;99.90;;;;;;5012013;28;20060;-67
2021/10/15 00:33:09;;;;;;;5.30;1.70;;;9.60;99.90;;;;;;5012194;28;20125;-67
2021/10/15 00:35:34;;;;;;;5.07;2.10;;;9.60;99.90;;;;;;5011995;28;20380;-67
2021/10/15 00:38:00;;;;;;;5.70;2.10;;;9.60;99.90;;;;;;5012042;28;20030;-67
2021/10/15 00:40:26;;;;;;;4.57;1.50;;;9.60;99.90;;;;;;5012351;28;20085;-67
2021/10/15 00:42:52;;;;;;;6.50;1.67;;;9.70;99.90;;;;;;5011886;28;20109;-67
2021/10/15 00:45:18;;;;;;;6.20;1.77;;;9.70;99.90;;;;;;5012048;28;20026;-67
2021/10/15 00:47:43;;;;;;;11.13;3.45;;;9.70;99.90;;;;;;5012127;28;20037;-67
2021/10/15 00:50:10;;;;;;;11.88;2.30;;;9.70;99.90;;;;;;5013036;28;20022;-67
2021/10/15 00:52:37;;;;;;;5.28;1.70;;;9.70;99.90;;;;;;5015419;28;20042;-67
2021/10/15 00:55:04;;;;;;;5.47;1.38;;;9.70;99.90;;;;;;5015332;28;20046;-67
2021/10/15 00:57:29;;;;;;;6.10;1.58;;;9.70;99.90;;;;;;5015397;28;20032;-67
2021/10/15 00:59:55;;;;;;;10.43;2.20;;;9.70;99.90;;;;;;5015465;28;20026;-67
2021/10/15 01:02:21;;;;;;;4.88;1.80;;;9.70;99.90;;;;;;5015335;28;20041;-66
2021/10/15 01:04:47;;;;;;;5.03;1.63;;;9.70;99.90;;;;;;5015280;28;20071;-66
2021/10/15 01:07:13;;;;;;;8.85;2.17;;;9.70;99.90;;;;;;5015156;28;20477;-66
2021/10/15 01:09:39;;;;;;;8.88;2.03;;;9.70;99.90;;;;;;5015156;28;20060;-66
2021/10/15 01:12:05;;;;;;;5.50;1.42;;;9.70;99.90;;;;;;5015156;28;20073;-66
2021/10/15 01:14:32;;;;;;;5.22;1.58;;;9.80;99.90;;;;;;5015321;28;20029;-66
2021/10/15 01:17:02;;;;;;;6.45;1.95;;;9.70;99.90;;;;;;5015096;28;20101;-66
2021/10/15 01:19:27;;;;;;;;;;;9.70;99.90;;;;;;5015553;28;20386;-66
2021/10/15 01:21:53;;;;;;;7.60;1.85;;;9.70;99.90;;;;;;5014929;28;19913;-66
2021/10/15 01:24:19;;;;;;;6.10;1.65;;;9.70;99.90;;;;;;5015029;28;20386;-66
2021/10/15 01:26:45;;;;;;;4.07;1.58;;;9.70;99.90;;;;;;5015056;28;20033;-67
2021/10/15 01:29:11;;;;;;;5.07;1.50;;;9.70;99.90;;;;;;5014977;28;20034;-67
2021/10/15 01:31:38;;;;;;;6.85;1.83;;;9.80;99.90;;;;;;5014586;28;20481;-66
2021/10/15 01:34:04;;;;;;;2.90;1.52;;;9.80;99.90;;;;;;5014979;28;20033;-67
2021/10/15 01:36:29;;;;;;;5.75;1.70;;;9.70;99.90;;;;;;5014716;28;20556;-67
2021/10/15 01:38:55;;;;;;;4.85;1.50;;;9.70;99.90;;;;;;5014517;28;20126;-66
2021/10/15 01:41:21;;;;;;;4.43;1.35;;;9.80;99.90;;;;;;5014643;28;20088;-66
2021/10/15 01:43:47;;;;;;;7.35;1.67;;;9.80;99.90;;;;;;5014785;28;20049;-66
2021/10/15 01:46:13;;;;;;;6.25;1.70;;;9.80;99.90;;;;;;5014576;28;20112;-66
2021/10/15 01:48:39;;;;;;;8.25;1.95;;;9.80;99.90;;;;;;5014645;28;20113;-66
2021/10/15 01:51:05;;;;;;;6.88;1.58;;;9.70;99.90;;;;;;5014723;28;20026;-66
2021/10/15 01:53:31;;;;;;;3.53;1.52;;;9.80;99.90;;;;;;5014463;28;20517;-67
2021/10/15 01:55:57;;;;;;;9.32;1.88;;;9.80;99.90;;;;;;5014548;28;20037;-68
2021/10/15 01:58:23;;;;;;;6.68;1.70;;;9.80;99.90;;;;;;5014330;28;20108;-69
2021/10/15 02:00:48;;;;;;;3.72;1.60;;;9.80;99.90;;;;;;5013894;28;20068;-69
2021/10/15 02:03:15;;;;;;;5.25;2.03;;;9.80;99.90;;;;;;5014357;28;20049;-69
2021/10/15 02:05:41;;;;;;;5.88;1.90;;;9.80;99.90;;;;;;5012873;28;20034;-69
2021/10/15 02:08:07;;;;;;;7.35;1.73;;;9.80;99.90;;;;;;5014256;28;20034;-69
2021/10/15 02:10:33;;;;;;;6.43;1.85;;;9.80;99.90;;;;;;5014299;28;20099;-69
2021/10/15 02:12:59;;;;;;;7.47;1.98;;;9.80;99.90;;;;;;5013993;28;20041;-69
2021/10/15 02:15:24;;;;;;;5.00;1.77;;;9.80;99.90;;;;;;5014148;28;20026;-69
2021/10/15 02:17:51;;;;;;;7.03;1.88;;;9.80;99.90;;;;;;5013908;28;20446;-69
2021/10/15 02:20:18;;;;;;;5.50;1.95;;;9.80;99.90;;;;;;5014330;28;20125;-69
2021/10/15 02:22:46;;;;;;;8.38;1.80;;;9.80;99.90;;;;;;5013648;28;20038;-69
2021/10/15 02:54:16;;;;;;;14.27;2.75;;;9.80;99.90;;;;;;5013195;28;20054;-68
2021/10/15 02:56:42;;;;;;;8.50;1.90;;;9.80;99.90;;;;;;5013203;28;20061;-68
2021/10/15 02:59:09;;;;;;;11.18;2.60;;;9.80;99.90;;;;;;5012018;28;20485;-68
2021/10/15 03:01:35;;;;;;;7.40;2.08;;;9.80;99.90;;;;;;5013098;28;20053;-68
2021/10/15 03:04:00;;;;;;;8.02;2.15;;;9.80;99.90;;;;;;5013227;28;20053;-68
2021/10/15 03:06:26;;;;;;;12.70;2.78;;;9.80;99.90;;;;;;5013408;28;20022;-68
2021/10/15 03:08:52;;;;;;;13.63;2.00;;;9.80;99.90;;;;;;5012959;28;20030;-68
2021/10/15 03:11:17;;;;;;;8.52;2.10;;;9.80;99.90;;;;;;5012993;28;20022;-68
2021/10/15 03:13:43;;;;;;;8.23;2.55;;;9.80;99.90;;;;;;5012105;28;20057;-68
2021/10/15 03:16:09;;;;;;;7.28;2.17;;;9.70;99.90;;;;;;5013020;28;20084;-68
2021/10/15 03:18:35;;;;;;;4.85;2.10;;;9.80;99.90;;;;;;5012604;28;20061;-68
2021/10/15 03:21:01;;;;;;;6.00;1.90;;;9.80;99.90;;;;;;5012902;28;20113;-68
2021/10/15 03:23:27;;;;;;;8.52;2.35;;;9.80;99.90;;;;;;5012874;28;20145;-68
2021/10/15 03:25:53;;;;;;;5.75;2.00;;;9.90;99.90;;;;;;5012745;28;20560;-68
2021/10/15 03:28:19;;;;;;;7.65;2.30;;;9.80;99.90;;;;;;5012871;28;20096;-68
2021/10/15 03:30:45;;;;;;;10.52;2.05;;;9.80;99.90;;;;;;5012691;28;20049;-68
2021/10/15 03:33:10;;;;;;;9.00;2.40;;;9.80;99.90;;;;;;5012644;28;20482;-68
2021/10/15 03:35:36;;;;;;;7.53;2.10;;;9.80;99.90;;;;;;5012933;28;20021;-68
2021/10/15 03:38:02;;;;;;;16.23;2.53;;;9.80;99.90;;;;;;5012858;28;20469;-68
2021/10/15 03:40:28;;;;;;;16.65;2.40;;;9.80;99.90;;;;;;5012731;28;20535;-68
2021/10/15 03:42:53;;;;;;;7.78;2.40;;;9.80;99.90;;;;;;5012315;28;20025;-68
2021/10/15 03:45:19;;;;;;;10.07;2.25;;;9.80;99.90;;;;;;5012819;28;20112;-68
2021/10/15 03:47:46;;;;;;;10.23;2.28;;;9.80;99.90;;;;;;5012297;28;20109;-68
2021/10/15 03:50:13;;;;;;;8.85;2.40;;;9.80;99.90;;;;;;5012385;28;20036;-68
2021/10/15 03:52:38;;;;;;;11.55;2.40;;;9.80;99.90;;;;;;5012278;28;20041;-68
2021/10/15 03:55:06;;;;;;;7.97;2.50;;;9.80;99.90;;;;;;5012235;28;20489;-68
2021/10/15 03:57:32;;;;;;;12.95;2.53;;;9.80;99.90;;;;;;5012338;28;20539;-68
2021/10/15 03:59:58;;;;;;;6.57;2.30;;;9.80;99.90;;;;;;5012136;28;20029;-68
2021/10/15 04:02:24;;;;;;;7.32;2.33;;;9.80;99.90;;;;;;5012283;28;20021;-68
2021/10/15 04:04:49;;;;;;;11.00;2.72;;;9.80;99.90;;;;;;5012242;28;20447;-68
2021/10/15 04:07:15;;;;;;;10.10;2.58;;;9.80;99.90;;;;;;5012113;28;20030;-68
2021/10/15 04:09:41;;;;;;;10.82;2.75;;;9.80;99.90;;;;;;5012150;28;20474;-68
2021/10/15 04:12:07;;;;;;;10.15;2.70;;;9.80;99.90;;;;;;5012054;28;20080;-68
2021/10/15 04:14:33;;;;;;;7.88;2.30;;;9.80;99.90;;;;;;5012242;28;20101;-68
2021/10/15 04:16:59;;;;;;;8.10;2.20;;;9.80;99.90;;;;;;5012087;28;20482;-68
2021/10/15 04:19:24;;;;;;;13.07;2.97;;;9.80;99.90;;;;;;5012138;28;20028;-68
2021/10/15 04:21:50;;;;;;;10.18;2.92;;;9.80;99.90;;;;;;5010668;28;20112;-68
2021/10/15 04:24:16;;;;;;;14.63;2.92;;;9.80;99.90;;;;;;5013464;28;20425;-68
2021/10/15 04:26:41;;;;;;;9.68;3.30;;;9.80;99.90;;;;;;5015870;28;20083;-68
2021/10/15 04:29:07;;;;;;;11.60;2.90;;;9.80;99.90;;;;;;5015851;28;20022;-69
2021/10/15 04:31:33;;;;;;;14.65;3.35;;;9.90;99.90;;;;;;5016048;28;20038;-70
2021/10/15 04:33:59;;;;;;;14.15;3.60;;;9.90;99.90;;;;;;5015670;28;20022;-69
2021/10/15 04:36:25;;;;;;;16.38;3.90;;;9.90;99.90;;;;;;5015677;28;20033;-70
2021/10/15 04:38:50;;;;;;;2.85;0.90;;;9.90;99.90;;;;;;5015549;28;20037;-75
2021/10/15 04:41:16;;;;;;;13.63;3.53;;;10.10;99.90;;;;;;5015596;28;20030;-68
2021/10/15 04:43:42;;;;;;;13.80;3.50;;;11.10;99.90;;;;;;5016078;28;20026;-68
2021/10/15 04:46:08;;;;;;;10.20;3.22;;;11.10;99.90;;;;;;5035200;28;20388;-69
2021/10/15 04:48:33;;;;;;;11.00;3.00;;;10.90;99.90;;;;;;5030654;28;20021;-68
2021/10/15 04:50:59;;;;;;;14.00;3.40;;;10.80;99.90;;;;;;5017958;28;20108;-67
2021/10/15 04:53:25;;;;;;;7.28;2.55;;;10.60;99.90;;;;;;5018167;28;20038;-68
2021/10/15 04:55:50;;;;;;;11.43;2.55;;;10.50;99.90;;;;;;5029999;28;20068;-68
2021/10/15 04:58:16;;;;;;;6.00;2.47;;;10.50;99.90;;;;;;5027711;28;20123;-68
2021/10/15 05:00:42;;;;;;;13.70;3.50;;;10.40;99.90;;;;;;5022208;28;20104;-68
2021/10/15 05:03:07;;;;;;;15.82;5.05;;;10.40;99.90;;;;;;5020778;28;20053;-69
2021/10/15 05:05:34;;;;;;;13.15;3.50;;;10.40;99.90;;;;;;5023247;28;20427;-69
2021/10/15 05:08:00;;;;;;;11.43;3.38;;;10.40;99.90;;;;;;5023694;28;20038;-69
2021/10/15 05:10:28;;;;;;;10.20;3.20;;;10.40;99.90;;;;;;5025847;28;20185;-68
2021/10/15 05:12:54;;;;;;;23.58;4.70;;;10.30;99.90;;;;;;5023564;28;20043;-70
2021/10/15 05:15:21;;;;;;;9.52;3.20;;;10.30;99.90;;;;;;5025059;28;20032;-69
2021/10/15 05:17:47;;;;;;;8.75;3.40;;;10.30;99.90;;;;;;5023775;28;20416;-69
2021/10/15 05:20:16;;;;;;;11.35;2.83;;;10.30;99.90;;;;;;5034765;28;20112;-72
2021/10/15 05:22:45;;;;;;;9.50;3.15;;;10.20;99.90;;;;;;5034513;28;20037;-73
2021/10/15 05:25:13;;;;;;;11.03;3.10;;;10.20;99.90;;;;;;5034723;28;20560;-72
2021/10/15 05:27:39;;;;;;;12.52;3.10;;;10.20;99.90;;;;;;5034453;28;20277;-73
2021/10/15 05:30:08;;;;;;;12.02;3.05;;;10.10;99.90;;;;;;5034513;28;20068;-72
2021/10/15 05:32:34;;;;;;;9.50;3.05;;;10.10;99.90;;;;;;5034685;28;20069;-73
2021/10/15 05:35:00;;;;;;;11.55;4.18;;;10.10;99.90;;;;;;5016120;28;20328;-70
2021/10/15 05:37:26;;;;;;;8.35;3.00;;;10.10;99.90;;;;;;5014114;28;20386;-69
2021/10/15 05:39:52;;;;;;;30.60;7.18;;;10.10;99.90;;;;;;5014782;28;20041;-68
2021/10/15 05:42:17;;;;;;;9.10;2.95;;;10.00;99.90;;;;;;5014778;28;20034;-68
2021/10/15 05:44:43;;;;;;;9.75;3.55;;;10.00;99.90;;;;;;5014677;28;20398;-68
2021/10/15 05:47:10;;;;;;;11.63;3.58;;;10.00;99.90;;;;;;5013302;28;20049;-68
2021/10/15 05:49:39;;;;;;;11.65;3.30;;;10.00;99.90;;;;;;5014798;28;20026;-68
2021/10/15 05:52:16;;;;;;;8.48;2.80;;;10.00;99.90;;;;;;5014387;28;20447;-68
2021/10/15 05:54:52;;;;;;;9.70;3.08;;;10.00;99.90;;;;;;5014196;28;20053;-68
2021/10/15 05:59:44;;;;;;;11.35;3.13;;;10.00;99.90;;;;;;5014168;28;20509;-68
2021/10/15 06:02:10;;;;;;;7.45;3.05;;;10.00;99.90;;;;;;5013943;28;20026;-69
2021/10/15 06:15:02;;;;;;;12.80;3.88;;;10.00;99.90;;;;;;5013905;28;20469;-67
2021/10/15 06:17:28;;;;;;;20.45;4.97;;;10.00;99.90;;;;;;5013717;28;20049;-67
2021/10/15 06:19:53;;;;;;;12.45;4.22;;;10.00;99.90;;;;;;5013754;28;20470;-68
2021/10/15 06:22:25;;;;;;;8.68;2.90;;;10.00;99.90;;;;;;5023533;28;20021;-68
2021/10/15 06:24:51;;;;;;;7.00;2.78;;;10.00;99.90;;;;;;5033619;28;20045;-68
2021/10/15 06:27:18;;;;;;;10.02;2.97;;;10.00;99.90;;;;;;5032314;28;20022;-68
2021/10/15 06:29:44;;;;;;;6.75;2.38;;;10.00;99.90;;;;;;5033376;28;20079;-67
2021/10/15 06:32:10;;;;;;;8.70;3.25;;;10.00;99.90;;;;;;5033270;28;20038;-67
2021/10/15 06:34:36;;;;;;;4.97;2.75;;;10.10;99.90;;;;;;5033703;28;20358;-67
2021/10/15 06:37:02;;;;;;;11.65;3.72;;;10.10;99.90;;;;;;5033213;28;20108;-67
2021/10/15 06:39:28;;;;;;;4.75;2.95;;;10.10;99.90;;;;;;5033087;28;20532;-67
2021/10/15 06:41:54;;;;;;;9.18;2.53;;;10.40;99.90;;;;;;5033003;28;20501;-68
2021/10/15 06:44:20;;;;;;;6.60;2.50;;;10.50;99.90;;;;;;5033129;28;20033;-67
2021/10/15 06:46:46;;;;;;;5.97;2.42;;;10.40;99.90;;;;;;5033231;28;20052;-67
2021/10/15 06:49:11;;;;;;;6.80;2.50;;;10.40;99.90;;;;;;5033006;28;20472;-67
2021/10/15 06:51:38;;;;;;;4.60;2.30;;;10.30;99.90;;;;;;5033286;28;20421;-67
2021/10/15 06:54:03;;;;;;;5.70;2.30;;;10.30;99.90;;;;;;5032748;28;20405;-67
2021/10/15 06:56:29;;;;;;;4.57;2.35;;;10.30;99.90;;;;;;5032943;28;20030;-68
2021/10/15 06:58:56;;;;;;;4.30;2.22;;;10.30;99.90;;;;;;5032685;28;20049;-68
2021/10/15 07:01:21;;;;;;;3.70;2.00;;;10.20;99.90;;;;;;5032655;28;20396;-68
2021/10/15 07:03:47;;;;;;;3.65;1.77;;;10.40;99.90;;;;;;5022424;28;20032;-68
2021/10/15 07:06:13;;;;;;;3.13;1.73;;;10.30;99.90;;;;;;5022530;28;20030;-68
2021/10/15 07:08:39;;;;;;;2.78;1.90;;;10.30;99.90;;;;;;5022526;28;20071;-68
2021/10/15 07:11:05;;;;;;;8.77;2.50;;;10.30;99.90;;;;;;5024255;28;20101;-68
2021/10/15 07:13:31;;;;;;;4.13;2.30;;;10.20;99.90;;;;;;5021186;28;20026;-68
2021/10/15 07:15:57;;;;;;;4.85;2.45;;;10.20;99.90;;;;;;5017089;28;20022;-68
2021/10/15 07:18:23;;;;;;;4.13;2.10;;;10.30;99.90;;;;;;5012721;28;20115;-66
2021/10/15 07:20:49;;;;;;;6.43;2.55;;;10.60;99.90;;;;;;5012520;28;20474;-67
2021/10/15 07:23:16;;;;;;;1.17;0.47;;;10.80;99.90;;;;;;5012707;28;20053;-67
2021/10/15 07:25:42;;;;;;;0.20;0.20;;;10.60;99.90;;;;;;5012872;28;20030;-67
2021/10/15 07:28:12;;;;;;;0.95;0.22;;;10.00;99.90;;;;;;5012351;28;20613;-67
2021/10/15 07:30:38;;;;;;;0.20;0.20;;;9.60;99.90;;;;;;5012640;28;20136;-67
2021/10/15 07:33:04;;;;;;;1.00;0.20;;;9.30;99.90;;;;;;5012244;28;20477;-67
2021/10/15 07:35:29;;;;;;;0.20;0.20;;;9.10;99.90;;;;;;5012637;28;20022;-67
2021/10/15 07:37:55;;;;;;;0.30;0.30;;;8.90;99.90;;;;;;5012318;28;20026;-67
2021/10/15 07:40:21;;;;;;;0.20;0.20;;;8.60;99.90;;;;;;5012559;28;20026;-67
2021/10/15 07:42:47;;;;;;;0.40;0.40;;;8.40;99.90;;;;;;5011087;28;20029;-67
2021/10/15 07:45:12;;;;;;;0.30;0.30;;;8.30;99.90;;;;;;5012523;28;20018;-67
2021/10/15 07:47:38;;;;;;;0.90;0.50;;;8.20;99.90;;;;;;5012718;28;20490;-67
2021/10/15 07:50:05;;;;;;;0.30;0.30;;;8.20;99.90;;;;;;5012345;28;20433;-67
2021/10/15 07:52:31;;;;;;;0.30;0.30;;;8.10;99.90;;;;;;5012271;28;20033;-67
2021/10/15 07:54:57;;;;;;;0.30;0.30;;;8.10;99.90;;;;;;5011967;28;20050;-67
2021/10/15 07:57:23;;;;;;;0.20;0.20;;;8.00;99.90;;;;;;5012438;28;20060;-67
2021/10/15 07:59:48;;;;;;;0.30;0.30;;;7.90;99.90;;;;;;5011859;28;20069;-67
2021/10/15 08:02:15;;;;;;;0.30;0.30;;;7.80;99.90;;;;;;5012255;28;20528;-67
2021/10/15 08:04:41;;;;;;;1.75;0.30;;;7.70;99.90;;;;;;5012391;28;20037;-67
2021/10/15 08:07:07;;;;;;;0.25;0.25;;;7.50;99.90;;;;;;5011971;28;20022;-67
2021/10/15 08:09:33;;;;;;;0.43;0.30;;;7.50;99.90;;;;;;5012059;28;20036;-67
2021/10/15 08:11:59;;;;;;;0.38;0.38;;;7.40;99.90;;;;;;5011869;28;20034;-67
2021/10/15 08:14:25;;;;;;;0.45;0.40;;;7.30;99.90;;;;;;5012318;28;20022;-67
2021/10/15 08:16:51;;;;;;;0.40;0.40;;;7.10;99.90;;;;;;5012039;28;20022;-67
2021/10/15 08:19:17;;;;;;;0.77;0.40;;;6.90;99.90;;;;;;5011937;28;20022;-67
2021/10/15 08:21:43;;;;;;;1.50;0.65;;;6.80;99.90;;;;;;5012329;28;20528;-67
2021/10/15 08:24:10;;;;;;;1.15;0.40;;;6.80;99.90;;;;;;5011844;28;20036;-66
2021/10/15 08:26:37;;;;;;;0.43;0.43;;;7.10;99.90;;;;;;5012082;28;20101;-66
2021/10/15 08:29:02;;;;;;;0.40;0.40;;;7.00;99.90;;;;;;5012097;28;20448;-67
2021/10/15 08:31:28;;;;;;;0.40;0.40;;;6.80;99.90;;;;;;5012269;28;20049;-66
2021/10/15 08:33:55;;;;;;;0.38;0.38;;;6.80;99.90;;;;;;5011771;28;20026;-66
2021/10/15 08:36:23;;;;;;;0.40;0.40;;;7.20;99.90;;;;;;5012165;28;20022;-66
2021/10/15 08:38:50;;;;;;;0.40;0.40;;;7.00;99.90;;;;;;5011853;28;20425;-68
2021/10/15 08:41:20;;;;;;;0.65;0.50;;;6.90;99.90;;;;;;5013442;28;20466;-68
2021/10/15 08:43:46;;;;;;;0.40;0.40;;;6.80;99.90;;;;;;5031855;28;20033;-68
2021/10/15 08:46:11;;;;;;;0.40;0.40;;;6.70;99.90;;;;;;5031494;28;20062;-68
2021/10/15 08:48:41;;;;;;;0.70;0.47;;;6.60;99.90;;;;;;5031762;28;20033;-68
2021/10/15 08:51:09;;;;;;;0.40;0.40;;;6.80;99.90;;;;;;5031437;28;20026;-68
2021/10/15 08:53:57;;;;;;;0.38;0.38;;;6.90;99.90;;;;;;5031603;28;20384;-68
2021/10/15 08:56:24;;;;;;;0.35;0.35;;;6.80;99.90;;;;;;5031711;28;20041;-68
2021/10/15 08:59:01;;;;;;;0.30;0.30;;;6.70;99.90;;;;;;5031521;28;20389;-68
2021/10/15 09:01:28;;;;;;;0.30;0.30;;;6.50;99.90;;;;;;5031700;28;20104;-68
2021/10/15 09:04:04;;;;;;;5.65;1.58;;;6.30;99.90;;;;;;5031374;28;20481;-68
2021/10/15 09:06:40;;;;;;;0.30;0.30;;;7.00;99.90;;;;;;5031684;28;20029;-69
2021/10/15 09:09:07;;;;;;;0.38;0.38;;;7.20;99.90;;;;;;5031098;28;20061;-68
2021/10/15 09:11:47;;;;;;;1.75;0.52;;;7.00;99.90;;;;;;5027073;28;20029;-68
2021/10/15 09:14:24;;;;;;;0.40;0.40;;;6.80;99.90;;;;;;5034798;28;20033;-69
2021/10/15 09:17:15;;;;;;;0.28;0.28;;;6.50;99.90;;;;;;5035346;28;20029;-68
2021/10/15 09:19:42;;;;;;;;;;;6.30;99.90;;;;;;5035444;28;20030;-68
2021/10/15 09:22:09;;;;;;;0.30;0.30;;;6.30;99.90;;;;;;5034749;28;20084;-68
2021/10/15 09:24:43;;;;;;;0.30;0.30;;;6.20;99.90;;;;;;5034804;28;20025;-69
2021/10/15 09:27:29;;;;;;;0.30;0.30;;;6.20;99.90;;;;;;5034721;28;20095;-68
2021/10/15 09:30:05;;;;;;;0.57;0.30;;;6.00;99.90;;;;;;5034542;28;20017;-69
2021/10/15 09:32:38;;;;;;;0.30;0.30;;;6.00;99.90;;;;;;5034637;28;20231;-68
2021/10/15 09:35:07;;;;;;;0.40;0.40;;;6.00;99.90;;;;;;5034469;28;20420;-68
2021/10/15 09:37:35;;;;;;;0.32;0.32;;;6.00;99.90;;;;;;5034496;28;20029;-69
2021/10/15 09:40:10;;;;;;;0.30;0.30;;;6.00;99.90;;;;;;5028275;28;20508;-68
2021/10/15 09:42:41;;;;;;;0.40;0.40;;;5.90;99.90;;;;;;5014722;28;20037;-66
2021/10/15 09:45:16;;;;;;;0.40;0.40;;;5.90;99.90;;;;;;5014458;28;20493;-66
2021/10/15 09:47:46;;;;;;;1.98;0.40;;;5.90;99.90;;;;;;5014490;28;20109;-67
2021/10/15 09:50:15;;;;;;;0.40;0.40;;;5.80;99.90;;;;;;5014390;28;20057;-68
2021/10/15 09:52:51;;;;;;;0.40;0.40;;;5.80;99.90;;;;;;5014504;28;20034;-68
2021/10/15 09:55:20;;;;;;;0.40;0.40;;;5.80;99.90;;;;;;5026238;28;20040;-68
2021/10/15 09:57:48;;;;;;;0.40;0.40;;;5.70;99.90;;;;;;5021302;28;20191;-69
2021/10/15 10:00:31;;;;;;;0.40;0.40;;;5.70;99.90;;;;;;5018665;28;20022;-69
2021/10/15 10:02:57;;;;;;;0.40;0.40;;;5.60;99.90;;;;;;5021813;28;20334;-69
2021/10/15 10:05:23;;;;;;;0.40;0.40;;;5.60;99.90;;;;;;5022119;28;20048;-69
2021/10/15 10:07:50;;;;;;;0.35;0.35;;;5.60;99.90;;;;;;5029866;28;20045;-68
2021/10/15 10:10:29;;;;;;;0.30;0.30;;;5.50;99.90;;;;;;5016354;28;20018;-68
2021/10/15 10:12:56;;;;;;;0.30;0.30;;;5.50;99.90;;;;;;5013684;28;20519;-68
2021/10/15 10:15:24;;;;;;;0.40;0.40;;;5.40;99.90;;;;;;5013748;28;20036;-68
2021/10/15 10:17:57;;;;;;;0.40;0.40;;;5.40;99.90;;;;;;5013846;28;20109;-68
2021/10/15 10:20:28;;;;;;;0.40;0.40;;;5.30;99.90;;;;;;5013858;28;20018;-68
2021/10/15 10:23:10;;;;;;;0.43;0.43;;;5.30;99.90;;;;;;5013741;28;20026;-68
2021/10/15 10:25:37;;;;;;;0.30;0.30;;;5.30;99.90;;;;;;5014141;28;20030;-68
2021/10/15 10:28:19;;;;;;;2.22;0.30;;;5.20;99.90;;;;;;5013472;28;20033;-68
2021/10/15 10:30:52;;;;;;;0.82;0.40;;;5.20;99.90;;;;;;5013739;28;20033;-68
2021/10/15 10:33:19;;;;;;;0.32;0.32;;;5.30;99.90;;;;;;5013454;28;20041;-69
2021/10/15 10:35:45;;;;;;;0.47;0.40;;;5.30;99.90;;;;;;5013626;28;20083;-68
2021/10/15 10:38:20;;;;;;;0.22;0.22;;;5.20;99.90;;;;;;5013367;28;20034;-68
2021/10/15 10:41:16;;;;;;;0.30;0.30;;;5.20;99.90;;;;;;5013498;28;20025;-69
2021/10/15 10:43:45;;;;;;;0.50;0.50;;;5.20;99.90;;;;;;5016873;28;20045;-68
2021/10/15 10:46:23;;;;;;;0.90;0.70;;;5.10;99.90;;;;;;5013262;28;20029;-69
2021/10/15 10:48:49;;;;;;;0.43;0.43;;;5.00;99.90;;;;;;5013168;28;20124;-69
2021/10/15 10:51:19;;;;;;;0.40;0.40;;;5.00;99.90;;;;;;5013186;28;20517;-68
2021/10/15 10:54:09;;;;;;;0.40;0.40;;;4.90;99.90;;;;;;5012952;28;20128;-68
2021/10/15 10:56:41;;;;;;;0.40;0.40;;;5.00;99.90;;;;;;5014101;28;20037;-69
2021/10/15 10:59:16;;;;;;;0.30;0.30;;;4.90;99.90;;;;;;5021225;28;20634;-69
2021/10/15 11:01:47;;;;;;;0.40;0.40;;;4.90;99.90;;;;;;5022106;28;20405;-68
2021/10/15 11:04:32;;;;;;;0.40;0.40;;;4.90;99.90;;;;;;5026633;28;20100;-68
2021/10/15 11:06:58;;;;;;;0.40;0.40;;;4.80;99.90;;;;;;5025541;28;20096;-68
2021/10/15 11:09:40;;;;;;;0.32;0.32;;;4.80;99.90;;;;;;5021532;28;20564;-68
2021/10/15 11:12:07;;;;;;;0.43;0.43;;;4.80;99.90;;;;;;5017011;28;20058;-68
2021/10/15 11:14:57;;;;;;;0.40;0.40;;;4.70;99.90;;;;;;5026919;28;20025;-68
2021/10/15 11:17:34;;;;;;;0.30;0.30;;;4.70;99.90;;;;;;5019996;28;20026;-68
2021/10/15 11:20:18;;;;;;;1.50;0.60;;;4.70;99.90;;;;;;5024803;28;20132;-68
2021/10/15 11:22:54;;;;;;;1.10;0.50;;;4.70;99.90;;;;;;5020517;28;20060;-68
2021/10/15 11:25:21;;;;;;;0.30;0.30;;;4.70;99.90;;;;;;5029704;28;20033;-68
2021/10/15 11:27:55;;;;;;;0.30;0.30;;;4.60;99.90;;;;;;5032763;28;20021;-67
2021/10/15 11:30:23;;;;;;;0.35;0.35;;;4.70;99.90;;;;;;5032463;28;20120;-67
2021/10/15 11:32:50;;;;;;;0.45;0.45;;;4.70;99.90;;;;;;5032536;28;20044;-66
2021/10/15 11:35:23;;;;;;;0.40;0.40;;;4.80;99.90;;;;;;5031339;28;20071;-67
2021/10/15 11:37:55;;;;;;;0.40;0.40;;;4.80;99.90;;;;;;5024180;28;20549;-68
2021/10/15 11:40:35;;;;;;;0.50;0.50;;;4.70;99.90;;;;;;5019859;28;20056;-68
2021/10/15 11:43:27;;;;;;;1.60;0.70;;;4.70;99.90;;;;;;5017761;28;20538;-68
2021/10/15 11:45:55;;;;;;;0.40;0.40;;;4.70;99.90;;;;;;5012474;28;20028;-68
2021/10/15 11:48:39;;;;;;;0.30;0.30;;;4.80;99.90;;;;;;5012390;28;20053;-68
2021/10/15 11:51:07;;;;;;;0.77;0.60;;;4.80;99.90;;;;;;5012607;28;20022;-68
2021/10/15 11:53:40;;;;;;;0.40;0.40;;;4.70;99.90;;;;;;5017138;28;21394;-68
2021/10/15 11:56:12;;;;;;;0.50;0.50;;;4.70;99.90;;;;;;5031964;28;20041;-68
2021/10/15 11:58:41;;;;;;;0.40;0.40;;;4.70;99.90;;;;;;5032015;28;20069;-68
2021/10/15 12:01:20;;;;;;;0.70;0.60;;;4.70;99.90;;;;;;5031827;28;20053;-68
2021/10/15 12:03:58;;;;;;;0.63;0.40;;;4.70;99.90;;;;;;5031914;28;20023;-69
2021/10/15 12:06:51;;;;;;;0.30;0.30;;;4.60;99.90;;;;;;5031926;28;20022;-69
2021/10/15 12:09:19;;;;;;;0.40;0.40;;;4.60;99.90;;;;;;5031434;28;20065;-67
2021/10/15 12:11:52;;;;;;;0.50;0.45;;;4.90;99.90;;;;;;5032226;28;20566;-67
2021/10/15 12:14:27;;;;;;;0.68;0.68;;;5.00;99.90;;;;;;5032050;28;20040;-67
2021/10/15 12:17:00;;;;;;;0.50;0.50;;;4.90;99.90;;;;;;5031986;28;20033;-65
2021/10/15 12:19:32;;;;;;;3.40;0.93;;;5.10;99.90;;;;;;5031757;28;20047;-66
2021/10/15 12:21:57;;;;;;;1.15;0.40;;;5.10;99.90;;;;;;5030510;28;20499;-65
2021/10/15 12:24:50;;;;;;;0.50;0.50;;;5.70;99.90;;;;;;5031313;28;20068;-66
2021/10/15 12:27:45;;;;;;;0.65;0.40;;;5.30;99.90;;;;;;5031370;28;20120;-66
2021/10/15 12:30:16;;;;;;;0.60;0.60;;;4.80;99.90;;;;;;5031016;28;20497;-65
2021/10/15 12:32:43;;;;;;;0.73;0.40;;;4.50;99.90;;;;;;5032021;28;20036;-66
2021/10/15 12:35:15;;;;;;;1.20;1.10;;;4.40;99.90;;;;;;5031523;28;20465;-65
2021/10/15 12:37:54;;;;;;;1.13;0.73;;;4.20;99.90;;;;;;5031640;28;20531;-65
2021/10/15 12:40:32;;;;;;;5.57;0.90;;;4.10;99.90;;;;;;5031641;28;20108;-66
2021/10/15 12:43:04;;;;;;;1.08;0.65;;;4.70;99.90;;;;;;5032067;28;20029;-66
2021/10/15 12:45:38;;;;;;;0.57;0.57;;;7.00;99.90;;;;;;5024428;28;20014;-65
2021/10/15 12:48:19;;;;;;;0.47;0.47;;;6.20;99.90;;;;;;5015710;28;20029;-66
2021/10/15 12:51:04;;;;;;;0.40;0.40;;;5.40;99.90;;;;;;5015908;28;20029;-66
2021/10/15 12:53:41;;;;;;;0.40;0.40;;;4.90;99.90;;;;;;5015492;28;20030;-65
2021/10/15 12:56:15;;;;;;;0.50;0.50;;;4.60;99.90;;;;;;5015553;28;20056;-66
2021/10/15 12:58:47;;;;;;;0.60;0.60;;;4.40;99.90;;;;;;5022711;28;20037;-66
2021/10/15 13:01:21;;;;;;;0.40;0.40;;;4.20;99.90;;;;;;5023113;28;20381;-66
2021/10/15 13:03:47;;;;;;;0.40;0.40;;;4.10;99.90;;;;;;5024639;28;20393;-66
2021/10/15 13:06:13;;;;;;;0.40;0.40;;;4.00;99.90;;;;;;5024038;28;20021;-66
2021/10/15 13:08:39;;;;;;;0.40;0.40;;;3.90;99.90;;;;;;5021465;28;20072;-65
2021/10/15 13:11:07;;;;;;;0.40;0.40;;;3.70;99.90;;;;;;5025410;28;20029;-66
2021/10/15 13:13:33;;;;;;;0.40;0.40;;;3.60;99.90;;;;;;5025250;28;20041;-66
2021/10/15 13:15:59;;;;;;;0.50;0.50;;;3.60;99.90;;;;;;5026124;28;20477;-65
2021/10/15 13:18:24;;;;;;;0.40;0.40;;;3.50;99.90;;;;;;5023708;28;20056;-66
2021/10/15 13:20:51;;;;;;;0.40;0.40;;;3.50;99.90;;;;;;5021361;28;20022;-66
2021/10/15 13:23:17;;;;;;;3.45;1.40;;;3.60;99.90;;;;;;5023597;28;20099;-66
2021/10/15 13:25:43;;;;;;;1.58;0.77;;;3.60;99.90;;;;;;5024799;28;20485;-65
2021/10/15 13:28:08;;;;;;;0.80;0.80;;;3.50;99.90;;;;;;5023256;28;20028;-66
2021/10/15 13:30:35;;;;;;;0.95;0.95;;;3.60;99.90;;;;;;5021979;28;20105;-66
2021/10/15 13:33:02;;;;;;;1.90;1.80;;;3.60;99.90;;;;;;5023047;28;20445;-65
2021/10/15 13:35:28;;;;;;;1.23;1.13;;;3.60;99.90;;;;;;5024457;28;20049;-65
2021/10/15 13:38:29;;;;;;;0.80;0.80;;;3.60;99.90;;;;;;5024908;28;20030;-65
2021/10/15 13:51:45;;;;;;;0.60;0.60;;;3.60;99.90;;;;;;5026610;28;20247;-65
2021/10/15 13:54:12;;;;;;;0.82;0.50;;;3.60;99.90;;;;;;5023687;28;20596;-66